sensor_id;sensor_type;location;lat;lon;timestamp;pressure;altitude;pressure_sealevel;temperature
41654;BMP280;30790;52.030;7.110;2023-03-01T00:01:49;102344.53;;;20.48
41654;BMP280;30790;52.030;7.110;2023-03-01T00:04:14;102338.44;;;20.46
41654;BMP280;30790;52.030;7.110;2023-03-01T00:06:40;102349.38;;;20.53
41654;BMP280;30790;52.030;7.110;2023-03-01T00:09:07;102349.16;;;20.54
41654;BMP280;30790;52.030;7.110;2023-03-01T00:11:33;102345.59;;;20.54
41654;BMP280;30790;52.030;7.110;2023-03-01T00:14:00;102339.97;;;20.55
41654;BMP280;30790;52.030;7.110;2023-03-01T00:16:28;102337.22;;;20.55
41654;BMP280;30790;52.030;7.110;2023-03-01T00:18:55;102332.16;;;20.52
41654;BMP280;30790;52.030;7.110;2023-03-01T00:21:22;102332.16;;;20.52
41654;BMP280;30790;52.030;7.110;2023-03-01T00:23:48;102329.84;;;20.49
41654;BMP280;30790;52.030;7.110;2023-03-01T00:26:15;102330.47;;;20.51
41654;BMP280;30790;52.030;7.110;2023-03-01T00:28:41;102324.59;;;20.48
41654;BMP280;30790;52.030;7.110;2023-03-01T00:31:10;102325.44;;;20.48
41654;BMP280;30790;52.030;7.110;2023-03-01T00:33:36;102324.81;;;20.46
41654;BMP280;30790;52.030;7.110;2023-03-01T00:36:02;102328.59;;;20.45
41654;BMP280;30790;52.030;7.110;2023-03-01T00:38:28;102333.00;;;20.46
41654;BMP280;30790;52.030;7.110;2023-03-01T00:40:54;102327.97;;;20.43
41654;BMP280;30790;52.030;7.110;2023-03-01T00:43:19;102324.59;;;20.41
41654;BMP280;30790;52.030;7.110;2023-03-01T00:45:44;102332.56;;;20.43
41654;BMP280;30790;52.030;7.110;2023-03-01T00:48:09;102332.78;;;20.41
41654;BMP280;30790;52.030;7.110;2023-03-01T00:50:35;102323.31;;;20.37
41654;BMP280;30790;52.030;7.110;2023-03-01T00:53:00;102332.34;;;20.37
41654;BMP280;30790;52.030;7.110;2023-03-01T00:55:26;102318.28;;;20.34
41654;BMP280;30790;52.030;7.110;2023-03-01T00:57:51;102330.88;;;20.35
41654;BMP280;30790;52.030;7.110;2023-03-01T01:00:18;102322.69;;;20.35
41654;BMP280;30790;52.030;7.110;2023-03-01T01:02:44;102325.63;;;20.33
41654;BMP280;30790;52.030;7.110;2023-03-01T01:05:10;102330.44;;;20.38
41654;BMP280;30790;52.030;7.110;2023-03-01T01:07:36;102323.31;;;20.37
41654;BMP280;30790;52.030;7.110;2023-03-01T01:10:01;102309.69;;;20.37
41654;BMP280;30790;52.030;7.110;2023-03-01T01:12:26;102316.19;;;20.36
41654;BMP280;30790;52.030;7.110;2023-03-01T01:14:52;102309.69;;;20.37
41654;BMP280;30790;52.030;7.110;2023-03-01T01:17:17;102316.19;;;20.36
41654;BMP280;30790;52.030;7.110;2023-03-01T01:19:42;102301.69;;;20.29
41654;BMP280;30790;52.030;7.110;2023-03-01T01:22:08;102308.19;;;20.34
41654;BMP280;30790;52.030;7.110;2023-03-01T01:24:33;102315.97;;;20.31
41654;BMP280;30790;52.030;7.110;2023-03-01T01:26:59;102312.19;;;20.32
41654;BMP280;30790;52.030;7.110;2023-03-01T01:29:24;102307.34;;;20.27
41654;BMP280;30790;52.030;7.110;2023-03-01T01:31:49;102314.06;;;20.31
41654;BMP280;30790;52.030;7.110;2023-03-01T01:34:17;102311.56;;;20.30
41654;BMP280;30790;52.030;7.110;2023-03-01T01:36:47;102302.75;;;20.28
41654;BMP280;30790;52.030;7.110;2023-03-01T01:39:13;102302.75;;;20.28
41654;BMP280;30790;52.030;7.110;2023-03-01T01:41:40;102294.94;;;20.25
41654;BMP280;30790;52.030;7.110;2023-03-01T01:44:19;102294.94;;;20.25
41654;BMP280;30790;52.030;7.110;2023-03-01T01:46:52;102286.56;;;20.20
41654;BMP280;30790;52.030;7.110;2023-03-01T01:52:34;102283.84;;;20.20
41654;BMP280;30790;52.030;7.110;2023-03-01T01:55:09;102285.50;;;20.21
41654;BMP280;30790;52.030;7.110;2023-03-01T01:57:39;102282.16;;;20.19
41654;BMP280;30790;52.030;7.110;2023-03-01T02:00:17;102277.97;;;20.16
41654;BMP280;30790;52.030;7.110;2023-03-01T02:02:44;102281.09;;;20.20
41654;BMP280;30790;52.030;7.110;2023-03-01T02:05:18;102276.69;;;20.19
41654;BMP280;30790;52.030;7.110;2023-03-01T02:07:48;102273.97;;;20.19
41654;BMP280;30790;52.030;7.110;2023-03-01T02:10:14;102259.50;;;20.18
41654;BMP280;30790;52.030;7.110;2023-03-01T02:12:40;102264.13;;;20.18
41654;BMP280;30790;52.030;7.110;2023-03-01T02:15:06;102268.72;;;20.17
41654;BMP280;30790;52.030;7.110;2023-03-01T02:17:32;102262.44;;;20.17
41654;BMP280;30790;52.030;7.110;2023-03-01T02:22:43;102260.75;;;20.16
41654;BMP280;30790;52.030;7.110;2023-03-01T02:30:20;102254.25;;;20.10
41654;BMP280;30790;52.030;7.110;2023-03-01T02:32:47;102255.72;;;20.13
41654;BMP280;30790;52.030;7.110;2023-03-01T02:35:15;102245.66;;;20.06
41654;BMP280;30790;52.030;7.110;2023-03-01T02:37:42;102255.94;;;20.11
41654;BMP280;30790;52.030;7.110;2023-03-01T02:40:12;102256.16;;;20.10
41654;BMP280;30790;52.030;7.110;2023-03-01T02:42:51;102263.69;;;20.08
41654;BMP280;30790;52.030;7.110;2023-03-01T02:45:18;102260.97;;;20.08
41654;BMP280;30790;52.030;7.110;2023-03-01T02:47:43;102251.94;;;20.00
41654;BMP280;30790;52.030;7.110;2023-03-01T02:50:19;102256.56;;;20.06
41654;BMP280;30790;52.030;7.110;2023-03-01T02:53:27;102264.09;;;20.04
41654;BMP280;30790;52.030;7.110;2023-03-01T02:55:57;102258.03;;;20.02
41654;BMP280;30790;52.030;7.110;2023-03-01T02:58:22;102256.13;;;20.03
41654;BMP280;30790;52.030;7.110;2023-03-01T03:00:48;102254.25;;;20.03
41654;BMP280;30790;52.030;7.110;2023-03-01T03:03:15;102242.94;;;20.00
41654;BMP280;30790;52.030;7.110;2023-03-01T03:05:41;102250.22;;;19.99
41654;BMP280;30790;52.030;7.110;2023-03-01T03:08:07;102243.75;;;20.00
41654;BMP280;30790;52.030;7.110;2023-03-01T03:10:35;102243.75;;;20.00
41654;BMP280;30790;52.030;7.110;2023-03-01T03:13:05;102254.66;;;20.00
41654;BMP280;30790;52.030;7.110;2023-03-01T03:15:31;102247.94;;;19.96
41654;BMP280;30790;52.030;7.110;2023-03-01T03:17:58;102252.75;;;19.94
41654;BMP280;30790;52.030;7.110;2023-03-01T03:20:25;102258.00;;;19.96
41654;BMP280;30790;52.030;7.110;2023-03-01T03:22:53;102252.75;;;19.94
41654;BMP280;30790;52.030;7.110;2023-03-01T03:25:20;102247.91;;;19.90
41654;BMP280;30790;52.030;7.110;2023-03-01T03:27:47;102252.94;;;19.93
41654;BMP280;30790;52.030;7.110;2023-03-01T03:30:16;102244.56;;;19.94
41654;BMP280;30790;52.030;7.110;2023-03-01T03:32:44;102245.63;;;19.93
41654;BMP280;30790;52.030;7.110;2023-03-01T03:37:48;102246.03;;;19.90
41654;BMP280;30790;52.030;7.110;2023-03-01T03:40:37;102242.25;;;19.91
41654;BMP280;30790;52.030;7.110;2023-03-01T03:43:07;102235.56;;;19.94
41654;BMP280;30790;52.030;7.110;2023-03-01T03:45:33;102233.03;;;19.92
41654;BMP280;30790;52.030;7.110;2023-03-01T03:48:01;102236.22;;;20.02
41654;BMP280;30790;52.030;7.110;2023-03-01T03:50:26;102228.88;;;20.03
41654;BMP280;30790;52.030;7.110;2023-03-01T03:52:51;102230.13;;;20.07
41654;BMP280;30790;52.030;7.110;2023-03-01T03:55:17;102236.84;;;20.11
41654;BMP280;30790;52.030;7.110;2023-03-01T03:57:45;102231.81;;;20.15
41654;BMP280;30790;52.030;7.110;2023-03-01T04:00:17;102238.13;;;20.15
41654;BMP280;30790;52.030;7.110;2023-03-01T04:02:44;102229.72;;;20.17
41654;BMP280;30790;52.030;7.110;2023-03-01T04:05:11;102217.34;;;20.21
41654;BMP280;30790;52.030;7.110;2023-03-01T04:07:38;102223.84;;;20.20
41654;BMP280;30790;52.030;7.110;2023-03-01T04:10:05;102220.06;;;20.21
41654;BMP280;30790;52.030;7.110;2023-03-01T04:12:32;102209.78;;;20.23
41654;BMP280;30790;52.030;7.110;2023-03-01T04:14:59;102213.16;;;20.25
41654;BMP280;30790;52.030;7.110;2023-03-01T04:17:24;102214.00;;;20.25
41654;BMP280;30790;52.030;7.110;2023-03-01T04:19:50;102211.91;;;20.27
41654;BMP280;30790;52.030;7.110;2023-03-01T04:22:15;102205.81;;;20.25
41654;BMP280;30790;52.030;7.110;2023-03-01T04:24:43;102208.78;;;20.30
41654;BMP280;30790;52.030;7.110;2023-03-01T04:27:09;102197.88;;;20.30
41654;BMP280;30790;52.030;7.110;2023-03-01T04:29:34;102206.47;;;20.34
41654;BMP280;30790;52.030;7.110;2023-03-01T04:32:00;102192.41;;;20.30
41654;BMP280;30790;52.030;7.110;2023-03-01T04:34:25;102207.09;;;20.36
41654;BMP280;30790;52.030;7.110;2023-03-01T04:36:52;102201.41;;;20.37
41654;BMP280;30790;52.030;7.110;2023-03-01T04:39:17;102204.78;;;20.40
41654;BMP280;30790;52.030;7.110;2023-03-01T04:41:43;102198.72;;;20.44
41654;BMP280;30790;52.030;7.110;2023-03-01T04:44:08;102190.09;;;20.47
41654;BMP280;30790;52.030;7.110;2023-03-01T04:46:34;102194.94;;;20.45
41654;BMP280;30790;52.030;7.110;2023-03-01T04:49:00;102187.81;;;20.44
41654;BMP280;30790;52.030;7.110;2023-03-01T04:51:25;102182.53;;;20.49
41654;BMP280;30790;52.030;7.110;2023-03-01T04:53:51;102183.16;;;20.51
41654;BMP280;30790;52.030;7.110;2023-03-01T04:56:16;102187.38;;;20.60
41654;BMP280;30790;52.030;7.110;2023-03-01T04:58:43;102183.59;;;20.61
41654;BMP280;30790;52.030;7.110;2023-03-01T05:01:14;102178.75;;;20.63
41654;BMP280;30790;52.030;7.110;2023-03-01T05:03:46;102174.34;;;20.69
41654;BMP280;30790;52.030;7.110;2023-03-01T05:06:13;102187.13;;;20.75
41654;BMP280;30790;52.030;7.110;2023-03-01T05:08:39;102185.22;;;20.76
41654;BMP280;30790;52.030;7.110;2023-03-01T05:11:04;102177.69;;;20.71
41654;BMP280;30790;52.030;7.110;2023-03-01T05:13:30;102174.31;;;20.76
41654;BMP280;30790;52.030;7.110;2023-03-01T05:15:58;102177.44;;;20.79
41654;BMP280;30790;52.030;7.110;2023-03-01T05:18:24;102168.03;;;20.75
41654;BMP280;30790;52.030;7.110;2023-03-01T05:21:03;102165.31;;;20.82
41654;BMP280;30790;52.030;7.110;2023-03-01T05:23:29;102173.50;;;20.82
41654;BMP280;30790;52.030;7.110;2023-03-01T05:25:57;102168.03;;;20.82
41654;BMP280;30790;52.030;7.110;2023-03-01T05:28:23;102160.69;;;20.82
41654;BMP280;30790;52.030;7.110;2023-03-01T05:30:48;102157.50;;;20.79
41654;BMP280;30790;52.030;7.110;2023-03-01T05:33:16;102166.31;;;20.81
41654;BMP280;30790;52.030;7.110;2023-03-01T05:35:43;102172.44;;;20.83
41654;BMP280;30790;52.030;7.110;2023-03-01T05:38:10;102164.66;;;20.80
41654;BMP280;30790;52.030;7.110;2023-03-01T05:40:39;102172.63;;;20.81
41654;BMP280;30790;52.030;7.110;2023-03-01T05:43:04;102168.66;;;20.77
41654;BMP280;30790;52.030;7.110;2023-03-01T05:45:30;102179.78;;;20.76
41654;BMP280;30790;52.030;7.110;2023-03-01T05:47:57;102179.78;;;20.76
41654;BMP280;30790;52.030;7.110;2023-03-01T05:50:25;102177.25;;;20.74
41654;BMP280;30790;52.030;7.110;2023-03-01T05:52:57;102178.09;;;20.75
41654;BMP280;30790;52.030;7.110;2023-03-01T05:55:23;102162.19;;;20.65
41654;BMP280;30790;52.030;7.110;2023-03-01T05:57:48;102174.09;;;20.77
41654;BMP280;30790;52.030;7.110;2023-03-01T06:00:16;102166.75;;;20.78
41654;BMP280;30790;52.030;7.110;2023-03-01T06:02:42;102174.75;;;20.73
41654;BMP280;30790;52.030;7.110;2023-03-01T06:05:09;102176.00;;;20.70
41654;BMP280;30790;52.030;7.110;2023-03-01T06:07:35;102176.84;;;20.71
41654;BMP280;30790;52.030;7.110;2023-03-01T06:10:02;102173.50;;;20.68
41654;BMP280;30790;52.030;7.110;2023-03-01T06:12:33;102158.41;;;20.66
41654;BMP280;30790;52.030;7.110;2023-03-01T06:14:59;102163.84;;;20.66
41654;BMP280;30790;52.030;7.110;2023-03-01T06:17:25;102168.47;;;20.65
41654;BMP280;30790;52.030;7.110;2023-03-01T06:19:50;102164.94;;;20.58
41654;BMP280;30790;52.030;7.110;2023-03-01T06:22:15;102164.50;;;20.61
41654;BMP280;30790;52.030;7.110;2023-03-01T06:24:41;102166.59;;;20.66
41654;BMP280;30790;52.030;7.110;2023-03-01T06:27:06;102163.47;;;20.56
41654;BMP280;30790;52.030;7.110;2023-03-01T06:29:31;102171.41;;;20.64
41654;BMP280;30790;52.030;7.110;2023-03-01T06:31:56;102171.22;;;20.65
41654;BMP280;30790;52.030;7.110;2023-03-01T06:34:22;102175.41;;;20.68
41654;BMP280;30790;52.030;7.110;2023-03-01T06:36:47;102162.41;;;20.63
41654;BMP280;30790;52.030;7.110;2023-03-01T06:39:12;102162.16;;;20.72
41654;BMP280;30790;52.030;7.110;2023-03-01T06:41:37;102164.59;;;20.99
41654;BMP280;30790;52.030;7.110;2023-03-01T06:44:03;102160.75;;;21.20
41654;BMP280;30790;52.030;7.110;2023-03-01T06:46:28;102154.84;;;21.30
41654;BMP280;30790;52.030;7.110;2023-03-01T06:48:54;102158.59;;;21.36
41654;BMP280;30790;52.030;7.110;2023-03-01T06:51:19;102148.97;;;21.26
41654;BMP280;30790;52.030;7.110;2023-03-01T06:53:46;102152.94;;;21.37
41654;BMP280;30790;52.030;7.110;2023-03-01T06:56:11;102155.66;;;21.37
41654;BMP280;30790;52.030;7.110;2023-03-01T06:58:37;102162.88;;;21.56
41654;BMP280;30790;52.030;7.110;2023-03-01T07:01:08;102166.22;;;21.65
41654;BMP280;30790;52.030;7.110;2023-03-01T07:03:34;102163.00;;;21.75
41654;BMP280;30790;52.030;7.110;2023-03-01T07:05:59;102157.91;;;21.78
41654;BMP280;30790;52.030;7.110;2023-03-01T07:08:25;102164.78;;;21.87
41654;BMP280;30790;52.030;7.110;2023-03-01T07:10:59;102161.81;;;21.96
41654;BMP280;30790;52.030;7.110;2023-03-01T07:13:27;102167.44;;;22.01
41654;BMP280;30790;52.030;7.110;2023-03-01T07:15:52;102167.84;;;22.04
41654;BMP280;30790;52.030;7.110;2023-03-01T07:18:18;102161.97;;;22.01
41654;BMP280;30790;52.030;7.110;2023-03-01T07:20:43;102170.38;;;22.06
41654;BMP280;30790;52.030;7.110;2023-03-01T07:23:08;102152.72;;;22.02
41654;BMP280;30790;52.030;7.110;2023-03-01T07:25:33;102156.28;;;22.02
41654;BMP280;30790;52.030;7.110;2023-03-01T07:27:59;102159.00;;;22.02
41654;BMP280;30790;52.030;7.110;2023-03-01T07:30:24;102151.88;;;22.01
41654;BMP280;30790;52.030;7.110;2023-03-01T07:32:54;102161.56;;;22.04
41654;BMP280;30790;52.030;7.110;2023-03-01T07:35:20;102155.88;;;21.99
41654;BMP280;30790;52.030;7.110;2023-03-01T07:37:46;102162.88;;;21.95
41654;BMP280;30790;52.030;7.110;2023-03-01T07:40:12;102154.66;;;21.95
41654;BMP280;30790;52.030;7.110;2023-03-01T07:42:37;102159.91;;;21.96
41654;BMP280;30790;52.030;7.110;2023-03-01T07:45:03;102150.47;;;21.92
41654;BMP280;30790;52.030;7.110;2023-03-01T07:47:29;102158.44;;;21.94
41654;BMP280;30790;52.030;7.110;2023-03-01T07:49:54;102153.22;;;21.92
41654;BMP280;30790;52.030;7.110;2023-03-01T07:52:19;102159.69;;;21.98
41654;BMP280;30790;52.030;7.110;2023-03-01T07:54:45;102154.44;;;21.96
41654;BMP280;30790;52.030;7.110;2023-03-01T07:57:10;102158.00;;;21.97
41654;BMP280;30790;52.030;7.110;2023-03-01T07:59:36;102155.28;;;21.97
41654;BMP280;30790;52.030;7.110;2023-03-01T08:02:01;102150.63;;;21.97
41654;BMP280;30790;52.030;7.110;2023-03-01T08:04:27;102145.66;;;21.87
41654;BMP280;30790;52.030;7.110;2023-03-01T08:06:53;102142.31;;;21.85
41654;BMP280;30790;52.030;7.110;2023-03-01T08:09:18;102159.47;;;21.99
41654;BMP280;30790;52.030;7.110;2023-03-01T08:11:44;102156.41;;;22.14
41654;BMP280;30790;52.030;7.110;2023-03-01T08:14:09;102161.09;;;22.07
41654;BMP280;30790;52.030;7.110;2023-03-01T08:16:35;102151.78;;;22.14
41654;BMP280;30790;52.030;7.110;2023-03-01T08:19:05;102160.88;;;22.33
41654;BMP280;30790;52.030;7.110;2023-03-01T08:21:32;102140.19;;;22.19
41654;BMP280;30790;52.030;7.110;2023-03-01T08:24:00;102158.81;;;22.04
41654;BMP280;30790;52.030;7.110;2023-03-01T08:26:25;102141.44;;;21.92
41654;BMP280;30790;52.030;7.110;2023-03-01T08:28:50;102155.28;;;21.97
41654;BMP280;30790;52.030;7.110;2023-03-01T08:31:27;102150.88;;;21.96
41654;BMP280;30790;52.030;7.110;2023-03-01T08:33:56;102147.06;;;21.97
41654;BMP280;30790;52.030;7.110;2023-03-01T08:36:23;102142.28;;;21.92
41654;BMP280;30790;52.030;7.110;2023-03-01T08:38:49;102139.31;;;21.94
41654;BMP280;30790;52.030;7.110;2023-03-01T08:41:14;102144.59;;;21.88
41654;BMP280;30790;52.030;7.110;2023-03-01T08:43:40;102131.97;;;21.87
41654;BMP280;30790;52.030;7.110;2023-03-01T08:46:06;102148.59;;;21.93
41654;BMP280;30790;52.030;7.110;2023-03-01T08:48:31;102133.66;;;21.88
41654;BMP280;30790;52.030;7.110;2023-03-01T08:50:56;102130.09;;;21.88
41654;BMP280;30790;52.030;7.110;2023-03-01T08:53:22;102133.44;;;21.90
41654;BMP280;30790;52.030;7.110;2023-03-01T08:55:47;102125.91;;;21.85
41654;BMP280;30790;52.030;7.110;2023-03-01T08:58:12;102127.97;;;21.90
41654;BMP280;30790;52.030;7.110;2023-03-01T09:00:38;102135.53;;;21.95
41654;BMP280;30790;52.030;7.110;2023-03-01T09:03:03;102136.16;;;21.90
41654;BMP280;30790;52.030;7.110;2023-03-01T09:05:31;102125.44;;;21.88
41654;BMP280;30790;52.030;7.110;2023-03-01T09:07:57;102137.00;;;21.90
41654;BMP280;30790;52.030;7.110;2023-03-01T09:10:22;102123.38;;;21.84
41654;BMP280;30790;52.030;7.110;2023-03-01T09:12:48;102129.84;;;21.89
41654;BMP280;30790;52.030;7.110;2023-03-01T09:15:13;102133.03;;;21.86
41654;BMP280;30790;52.030;7.110;2023-03-01T09:17:39;102124.38;;;21.89
41654;BMP280;30790;52.030;7.110;2023-03-01T09:20:04;102129.63;;;21.91
41654;BMP280;30790;52.030;7.110;2023-03-01T09:22:33;102125.44;;;21.88
41654;BMP280;30790;52.030;7.110;2023-03-01T09:24:58;102127.34;;;21.88
41654;BMP280;30790;52.030;7.110;2023-03-01T09:27:24;102123.38;;;21.84
41654;BMP280;30790;52.030;7.110;2023-03-01T09:29:50;102125.91;;;21.85
41654;BMP280;30790;52.030;7.110;2023-03-01T09:32:15;102123.56;;;21.89
41654;BMP280;30790;52.030;7.110;2023-03-01T09:34:40;102118.31;;;21.87
41654;BMP280;30790;52.030;7.110;2023-03-01T09:37:24;102119.81;;;21.83
41654;BMP280;30790;52.030;7.110;2023-03-01T09:39:49;102125.44;;;21.88
41654;BMP280;30790;52.030;7.110;2023-03-01T09:42:15;102124.38;;;21.89
41654;BMP280;30790;52.030;7.110;2023-03-01T09:45:04;102115.19;;;21.84
41654;BMP280;30790;52.030;7.110;2023-03-01T09:47:31;102107.44;;;21.81
41654;BMP280;30790;52.030;7.110;2023-03-01T09:52:40;102107.50;;;21.74
41654;BMP280;30790;52.030;7.110;2023-03-01T09:55:15;102112.97;;;21.74
41654;BMP280;30790;52.030;7.110;2023-03-01T09:57:57;102102.91;;;21.68
41654;BMP280;30790;52.030;7.110;2023-03-01T10:03:09;102091.53;;;21.71
41654;BMP280;30790;52.030;7.110;2023-03-01T10:11:12;102089.03;;;21.70
41654;BMP280;30790;52.030;7.110;2023-03-01T10:13:45;102086.97;;;21.65
41654;BMP280;30790;52.030;7.110;2023-03-01T10:16:15;102087.88;;;21.52
41654;BMP280;30790;52.030;7.110;2023-03-01T10:18:44;102082.19;;;21.54
41654;BMP280;30790;52.030;7.110;2023-03-01T10:21:17;102072.94;;;21.55
41654;BMP280;30790;52.030;7.110;2023-03-01T10:23:44;102074.84;;;21.54
41654;BMP280;30790;52.030;7.110;2023-03-01T10:28:58;102071.16;;;21.42
41654;BMP280;30790;52.030;7.110;2023-03-01T10:31:36;102075.78;;;21.42
41654;BMP280;30790;52.030;7.110;2023-03-01T10:34:04;102063.63;;;21.38
41654;BMP280;30790;52.030;7.110;2023-03-01T10:36:33;102068.41;;;21.42
41654;BMP280;30790;52.030;7.110;2023-03-01T10:38:59;102065.69;;;21.42
41654;BMP280;30790;52.030;7.110;2023-03-01T10:41:26;102051.03;;;21.37
41654;BMP280;30790;52.030;7.110;2023-03-01T10:43:57;102062.38;;;21.34
41654;BMP280;30790;52.030;7.110;2023-03-01T10:46:34;102047.25;;;21.31
41654;BMP280;30790;52.030;7.110;2023-03-01T10:49:18;102043.31;;;21.20
41654;BMP280;30790;52.030;7.110;2023-03-01T10:51:46;102047.44;;;21.36
41654;BMP280;30790;52.030;7.110;2023-03-01T10:54:33;102043.44;;;21.39
41654;BMP280;30790;52.030;7.110;2023-03-01T10:57:00;102057.66;;;21.47
41654;BMP280;30790;52.030;7.110;2023-03-01T10:59:38;102037.88;;;21.52
41654;BMP280;30790;52.030;7.110;2023-03-01T11:04:35;102047.56;;;21.48
41654;BMP280;30790;52.030;7.110;2023-03-01T11:07:02;102050.91;;;21.50
41654;BMP280;30790;52.030;7.110;2023-03-01T11:09:31;102057.44;;;21.49
41654;BMP280;30790;52.030;7.110;2023-03-01T11:12:02;102054.72;;;21.49
41654;BMP280;30790;52.030;7.110;2023-03-01T11:14:49;102038.75;;;21.46
41654;BMP280;30790;52.030;7.110;2023-03-01T11:17:26;102035.41;;;21.44
41654;BMP280;30790;52.030;7.110;2023-03-01T11:23:04;102058.28;;;21.49
41654;BMP280;30790;52.030;7.110;2023-03-01T11:25:36;102049.84;;;21.51
41654;BMP280;30790;52.030;7.110;2023-03-01T11:28:04;102055.94;;;21.53
41654;BMP280;30790;52.030;7.110;2023-03-01T11:30:54;102048.56;;;21.53
41654;BMP280;30790;52.030;7.110;2023-03-01T11:38:40;102029.06;;;21.50
41654;BMP280;30790;52.030;7.110;2023-03-01T11:41:24;102035.38;;;21.50
41654;BMP280;30790;52.030;7.110;2023-03-01T11:44:00;102022.81;;;21.43
41654;BMP280;30790;52.030;7.110;2023-03-01T11:46:51;102035.03;;;21.40
41654;BMP280;30790;52.030;7.110;2023-03-01T11:49:52;102046.41;;;21.37
41654;BMP280;30790;52.030;7.110;2023-03-01T12:00:15;102017.47;;;21.23
41654;BMP280;30790;52.030;7.110;2023-03-01T12:02:59;102017.91;;;21.20
41654;BMP280;30790;52.030;7.110;2023-03-01T12:08:23;102009.97;;;21.12
41654;BMP280;30790;52.030;7.110;2023-03-01T12:11:01;102004.09;;;21.08
41654;BMP280;30790;52.030;7.110;2023-03-01T12:16:35;101996.19;;;21.00
41654;BMP280;30790;52.030;7.110;2023-03-01T12:27:48;101988.16;;;21.43
41654;BMP280;30790;52.030;7.110;2023-03-01T12:30:48;101995.06;;;21.46
41654;BMP280;30790;52.030;7.110;2023-03-01T12:33:29;101987.84;;;21.51
41654;BMP280;30790;52.030;7.110;2023-03-01T12:36:09;101992.19;;;21.59
41654;BMP280;30790;52.030;7.110;2023-03-01T12:38:49;101978.75;;;21.57
41654;BMP280;30790;52.030;7.110;2023-03-01T12:41:27;101978.50;;;21.66
41654;BMP280;30790;52.030;7.110;2023-03-01T12:44:24;101972.81;;;21.67
41654;BMP280;30790;52.030;7.110;2023-03-01T12:49:24;101966.50;;;21.67
41654;BMP280;30790;52.030;7.110;2023-03-01T12:51:58;101965.66;;;21.66
41654;BMP280;30790;52.030;7.110;2023-03-01T12:54:30;101947.19;;;21.62
41654;BMP280;30790;52.030;7.110;2023-03-01T12:57:05;101959.19;;;21.60
41654;BMP280;30790;52.030;7.110;2023-03-01T13:02:35;101958.97;;;21.62
41654;BMP280;30790;52.030;7.110;2023-03-01T13:05:16;101951.59;;;21.63
41654;BMP280;30790;52.030;7.110;2023-03-01T13:10:26;101935.88;;;21.58
41654;BMP280;30790;52.030;7.110;2023-03-01T13:17:52;101935.28;;;21.56
41654;BMP280;30790;52.030;7.110;2023-03-01T13:20:20;101927.31;;;21.54
41654;BMP280;30790;52.030;7.110;2023-03-01T13:22:47;101926.09;;;21.50
41654;BMP280;30790;52.030;7.110;2023-03-01T13:25:19;101920.00;;;21.48
41654;BMP280;30790;52.030;7.110;2023-03-01T13:27:46;101905.13;;;21.44
41654;BMP280;30790;52.030;7.110;2023-03-01T13:35:55;101905.97;;;21.63
41654;BMP280;30790;52.030;7.110;2023-03-01T13:38:44;101901.16;;;21.65
41654;BMP280;30790;52.030;7.110;2023-03-01T13:41:11;101896.09;;;21.62
41654;BMP280;30790;52.030;7.110;2023-03-01T13:43:46;101884.75;;;21.65
41654;BMP280;30790;52.030;7.110;2023-03-01T13:46:17;101885.59;;;21.66
41654;BMP280;30790;52.030;7.110;2023-03-01T13:48:45;101892.28;;;21.70
41654;BMP280;30790;52.030;7.110;2023-03-01T13:51:13;101889.75;;;21.68
41654;BMP280;30790;52.030;7.110;2023-03-01T13:53:46;101881.56;;;21.68
41654;BMP280;30790;52.030;7.110;2023-03-01T13:56:19;101876.72;;;21.70
41654;BMP280;30790;52.030;7.110;2023-03-01T14:01:36;101872.44;;;21.74
41654;BMP280;30790;52.030;7.110;2023-03-01T14:04:03;101877.47;;;21.77
41654;BMP280;30790;52.030;7.110;2023-03-01T14:06:33;101865.22;;;21.80
41654;BMP280;30790;52.030;7.110;2023-03-01T14:14:52;101858.47;;;22.01
41654;BMP280;30790;52.030;7.110;2023-03-01T14:20:29;101846.25;;;22.03
41654;BMP280;30790;52.030;7.110;2023-03-01T14:22:58;101848.38;;;22.01
41654;BMP280;30790;52.030;7.110;2023-03-01T14:25:29;101856.34;;;22.03
41654;BMP280;30790;52.030;7.110;2023-03-01T14:27:59;101849.22;;;22.02
41654;BMP280;30790;52.030;7.110;2023-03-01T14:30:35;101843.31;;;22.05
41654;BMP280;30790;52.030;7.110;2023-03-01T14:33:04;101848.53;;;22.06
41654;BMP280;30790;52.030;7.110;2023-03-01T14:35:33;101841.41;;;22.05
41654;BMP280;30790;52.030;7.110;2023-03-01T14:37:59;101836.00;;;21.99
41654;BMP280;30790;52.030;7.110;2023-03-01T14:40:34;101829.47;;;22.00
41654;BMP280;30790;52.030;7.110;2023-03-01T14:43:02;101830.75;;;21.97
41654;BMP280;30790;52.030;7.110;2023-03-01T14:45:33;101817.16;;;21.90
41654;BMP280;30790;52.030;7.110;2023-03-01T14:48:00;101821.78;;;21.90
41654;BMP280;30790;52.030;7.110;2023-03-01T14:50:29;101806.31;;;21.84
41654;BMP280;30790;52.030;7.110;2023-03-01T14:52:58;101809.75;;;21.79
41654;BMP280;30790;52.030;7.110;2023-03-01T14:55:28;101808.22;;;21.83
41654;BMP280;30790;52.030;7.110;2023-03-01T14:57:56;101804.88;;;21.81
41654;BMP280;30790;52.030;7.110;2023-03-01T15:00:25;101810.56;;;21.80
41654;BMP280;30790;52.030;7.110;2023-03-01T15:02:53;101805.09;;;21.80
41654;BMP280;30790;52.030;7.110;2023-03-01T15:05:25;101794.25;;;21.73
41654;BMP280;30790;52.030;7.110;2023-03-01T15:07:52;101797.59;;;21.75
41654;BMP280;30790;52.030;7.110;2023-03-01T15:10:36;101795.09;;;21.74
41654;BMP280;30790;52.030;7.110;2023-03-01T15:15:44;101801.84;;;21.71
41654;BMP280;30790;52.030;7.110;2023-03-01T15:20:41;101801.72;;;21.66
41654;BMP280;30790;52.030;7.110;2023-03-01T15:23:20;101801.09;;;21.64
41654;BMP280;30790;52.030;7.110;2023-03-01T15:25:46;101801.09;;;21.64
41654;BMP280;30790;52.030;7.110;2023-03-01T15:28:19;101805.09;;;21.62
41654;BMP280;30790;52.030;7.110;2023-03-01T15:30:46;101801.78;;;21.59
41654;BMP280;30790;52.030;7.110;2023-03-01T15:33:31;101800.78;;;21.54
41654;BMP280;30790;52.030;7.110;2023-03-01T15:35:58;101803.00;;;21.45
41654;BMP280;30790;52.030;7.110;2023-03-01T15:38:35;101788.63;;;21.32
41654;BMP280;30790;52.030;7.110;2023-03-01T15:41:27;101806.53;;;18.18
41654;BMP280;30790;52.030;7.110;2023-03-01T15:43:53;101796.94;;;17.68